Time;durP1;ratioP1;P1;durP2;ratioP2;P2;SDS_P1;SDS_P2;PMS_P1;PMS_P2;Temp;Humidity;BMP_temperature;BMP_pressure;BME280_temperature;BME280_humidity;BME280_pressure;Samples;Min_cycle;Max_cycle;Signal;HPM_P1;HPM_P2
2023/06/03 00:00:20;;;;;;;;;;;;;;;20.31;54.55;97934.13;5049005;28;19921;-71
2023/06/03 00:02:47;;;;;;;;;;;;;;;19.85;55.54;97927.53;5037965;28;19964;-72
2023/06/03 00:05:17;;;;;;;;;;;;;;;20.09;54.97;97926.19;5042132;28;19933;-72
2023/06/03 00:07:45;;;;;;;;;;;;;;;19.82;55.18;97933.59;5041610;28;19928;-72
2023/06/03 00:10:11;;;;;;;;;;;;;;;19.90;55.14;97931.97;5041295;28;19925;-72
2023/06/03 00:12:38;;;;;;;;;;;;;;;20.06;55.19;97929.53;5041120;28;19925;-72
2023/06/03 00:15:04;;;;;;;;;;;;;;;20.22;54.77;97925.19;5038692;28;19929;-71
2023/06/03 00:17:31;;;;;;;;;;;;;;;20.37;54.33;97930.91;5039640;28;20048;-72
2023/06/03 00:20:06;;;;;;;;;;;;;;;19.85;55.12;97927.53;5042342;28;19925;-72
2023/06/03 00:22:32;;;;;;;;;;;;;;;19.80;55.32;97921.50;5042356;28;20323;-72
2023/06/03 00:25:00;;;;;;;;;;;;;;;19.89;55.19;97927.69;5042309;28;19921;-72
2023/06/03 00:27:26;;;;;;;;;;;;;;;20.05;54.95;97933.41;5039389;28;19929;-72
2023/06/03 00:29:53;;;;;;;;;;;;;;;20.13;54.76;97927.94;5048130;28;19925;-72
2023/06/03 00:32:19;;;;;;;;;;;;;;;20.07;54.81;97937.38;5036219;28;20466;-72
2023/06/03 00:34:46;;;;;;;;;;;;;;;20.12;54.58;97939.09;5042017;28;19932;-72
2023/06/03 00:37:12;;;;;;;;;;;;;;;20.40;54.24;97938.38;5041831;28;19926;-72
2023/06/03 00:39:38;;;;;;;;;;;;;;;20.35;54.18;97935.88;5040786;28;19921;-72
2023/06/03 00:42:07;;;;;;;;;;;;;;;20.21;54.44;97943.38;5037808;28;19929;-72
2023/06/03 00:44:33;;;;;;;;;;;;;;;20.20;54.58;97947.22;5038848;28;19936;-72
2023/06/03 00:46:59;;;;;;;;;;;;;;;20.21;54.43;97948.78;5049863;28;19933;-72
2023/06/03 00:49:26;;;;;;;;;;;;;;;19.96;55.02;97933.41;5038646;28;19925;-72
2023/06/03 00:51:52;;;;;;;;;;;;;;;20.01;54.82;97938.66;5037314;28;20008;-71
2023/06/03 00:54:19;;;;;;;;;;;;;;;19.78;55.41;97931.84;5041353;28;19926;-72
2023/06/03 00:56:45;;;;;;;;;;;;;;;19.46;56.19;97929.69;5041395;28;19941;-72
2023/06/03 00:59:15;;;;;;;;;;;;;;;19.28;57.31;97931.56;5044825;28;19921;-72
2023/06/03 01:01:42;;;;;;;;;;;;;;;19.85;56.29;97932.97;5045270;28;19932;-72
2023/06/03 01:04:08;;;;;;;;;;;;;;;19.48;56.93;97928.22;5036999;28;19929;-72
2023/06/03 01:06:45;;;;;;;;;;;;;;;19.68;56.06;97929.50;5038159;28;19925;-72
2023/06/03 01:09:15;;;;;;;;;;;;;;;19.78;55.84;97929.94;5041351;28;19925;-72
2023/06/03 01:11:45;;;;;;;;;;;;;;;19.29;57.77;97936.66;5041345;28;19941;-72
2023/06/03 01:14:23;;;;;;;;;;;;;;;18.31;60.55;97938.97;5041223;28;19926;-72
2023/06/03 01:16:52;;;;;;;;;;;;;;;17.77;64.97;97950.91;5041118;28;19925;-72
2023/06/03 01:19:30;;;;;;;;;;;;;;;18.17;66.22;97940.97;5037344;28;19933;-72
2023/06/03 01:22:00;;;;;;;;;;;;;;;18.14;68.10;97930.78;5046485;28;19932;-72
2023/06/03 01:24:30;;;;;;;;;;;;;;;17.80;70.36;97936.00;5043443;28;19925;-71
2023/06/03 01:26:57;;;;;;;;;;;;;;;18.60;66.73;97934.97;5045067;28;19926;-72
2023/06/03 01:29:23;;;;;;;;;;;;;;;18.33;68.10;97936.75;5044817;28;19925;-72
2023/06/03 01:31:49;;;;;;;;;;;;;;;17.98;70.44;97929.56;5045466;28;19925;-72
2023/06/03 01:34:16;;;;;;;;;;;;;;;17.64;73.94;97938.28;5045514;28;19926;-72
2023/06/03 01:36:42;;;;;;;;;;;;;;;17.30;78.29;97929.13;5045127;28;19932;-72
2023/06/03 01:39:11;;;;;;;;;;;;;;;17.05;82.18;97925.88;5044872;28;19929;-72
2023/06/03 01:41:40;;;;;;;;;;;;;;;17.50;79.60;97934.81;5038836;28;19921;-72
2023/06/03 01:44:06;;;;;;;;;;;;;;;17.71;78.01;97925.13;5039161;28;19945;-72
2023/06/03 01:46:33;;;;;;;;;;;;;;;18.27;75.38;97929.09;5043243;28;19945;-72
2023/06/03 01:48:59;;;;;;;;;;;;;;;19.03;69.74;97922.31;5043509;28;19921;-72
2023/06/03 01:51:26;;;;;;;;;;;;;;;19.40;66.64;97924.41;5044664;28;19925;-71
2023/06/03 01:53:52;;;;;;;;;;;;;;;19.43;65.71;97927.59;5044577;28;19921;-71
2023/06/03 01:56:19;;;;;;;;;;;;;;;18.23;69.99;97931.59;5041087;28;19921;-72
2023/06/03 01:58:47;;;;;;;;;;;;;;;18.04;73.68;97941.84;5043460;28;19983;-72
2023/06/03 02:01:14;;;;;;;;;;;;;;;17.46;78.76;97935.72;5043184;28;19933;-71
2023/06/03 02:03:40;;;;;;;;;;;;;;;17.12;83.49;97934.34;5044014;28;19913;-72
2023/06/03 02:06:07;;;;;;;;;;;;;;;16.90;86.21;97930.78;5061796;28;19921;-71
2023/06/03 02:08:35;;;;;;;;;;;;;;;16.85;87.57;97929.03;5043465;28;19925;-71
2023/06/03 02:11:02;;;;;;;;;;;;;;;17.86;81.30;97934.75;5040602;28;19926;-71
2023/06/03 02:13:28;;;;;;;;;;;;;;;17.53;80.88;97933.41;5042476;28;20517;-71
2023/06/03 02:15:56;;;;;;;;;;;;;;;17.27;83.58;97925.09;5044612;28;19933;-71
2023/06/03 02:18:22;;;;;;;;;;;;;;;16.41;90.48;97928.81;5048819;28;19925;-71
2023/06/03 02:20:49;;;;;;;;;;;;;;;16.15;94.25;97925.84;5040492;28;19926;-71
2023/06/03 02:23:15;;;;;;;;;;;;;;;16.42;92.64;97935.81;5044870;28;19930;-71
2023/06/03 02:25:42;;;;;;;;;;;;;;;16.56;92.00;97921.25;5043941;28;19921;-71
2023/06/03 02:28:09;;;;;;;;;;;;;;;17.52;86.01;97921.78;5043708;28;19929;-71
2023/06/03 02:30:35;;;;;;;;;;;;;;;16.69;89.20;97931.25;5050853;28;19932;-71
2023/06/03 02:33:03;;;;;;;;;;;;;;;16.85;88.98;97918.25;5039429;28;19933;-71
2023/06/03 02:35:29;;;;;;;;;;;;;;;16.40;92.16;97922.63;5042441;28;20311;-72
2023/06/03 02:37:56;;;;;;;;;;;;;;;16.16;95.49;97927.41;5059142;28;19929;-71
2023/06/03 02:40:22;;;;;;;;;;;;;;;16.31;94.21;97923.66;5043480;28;20295;-71
2023/06/03 02:42:49;;;;;;;;;;;;;;;15.65;99.19;97924.84;5043307;28;19967;-71
2023/06/03 02:45:15;;;;;;;;;;;;;;;16.79;95.16;97924.84;5039467;28;19925;-71
2023/06/03 02:47:41;;;;;;;;;;;;;;;16.48;92.27;97923.84;5040480;28;19929;-71
2023/06/03 02:50:09;;;;;;;;;;;;;;;15.94;96.88;97933.47;5043462;28;19925;-71
2023/06/03 02:52:36;;;;;;;;;;;;;;;16.12;95.64;97935.28;5043689;28;19977;-71
2023/06/03 02:55:03;;;;;;;;;;;;;;;15.77;99.11;97938.63;5040669;28;19926;-71
2023/06/03 02:57:29;;;;;;;;;;;;;;;15.46;100.00;97941.00;5040786;28;19925;-71
2023/06/03 02:59:56;;;;;;;;;;;;;;;15.60;100.00;97933.00;5048679;28;19932;-71
2023/06/03 03:02:24;;;;;;;;;;;;;;;16.05;97.83;97929.53;5036163;28;19932;-71
2023/06/03 03:04:51;;;;;;;;;;;;;;;15.50;100.00;97938.56;5043055;28;19925;-72
2023/06/03 03:07:26;;;;;;;;;;;;;;;15.36;100.00;97937.66;5042843;28;19941;-71
2023/06/03 03:09:53;;;;;;;;;;;;;;;15.57;100.00;97936.28;5043820;28;19925;-71
2023/06/03 03:12:19;;;;;;;;;;;;;;;17.22;90.47;97939.53;5042167;28;19937;-71
2023/06/03 03:14:45;;;;;;;;;;;;;;;16.03;96.84;97944.41;5043550;28;19965;-71
2023/06/03 03:17:12;;;;;;;;;;;;;;;15.39;100.00;97950.53;5043201;28;19925;-71
2023/06/03 03:19:38;;;;;;;;;;;;;;;15.62;100.00;97949.66;5037062;28;20574;-71
2023/06/03 03:22:05;;;;;;;;;;;;;;;15.43;100.00;97946.16;5037192;28;19922;-71
2023/06/03 03:24:32;;;;;;;;;;;;;;;16.19;100.00;97953.78;5041659;28;19925;-71
2023/06/03 03:27:00;;;;;;;;;;;;;;;15.71;100.00;97961.38;5058325;28;19921;-71
2023/06/03 03:29:26;;;;;;;;;;;;;;;16.63;95.56;97959.41;5048047;28;19929;-71
2023/06/03 03:31:54;;;;;;;;;;;;;;;16.05;98.17;97951.06;5045462;28;19990;-71
2023/06/03 03:34:21;;;;;;;;;;;;;;;16.24;97.13;97950.19;5038881;28;19944;-71
2023/06/03 03:36:47;;;;;;;;;;;;;;;16.37;97.85;97955.56;5037975;28;19940;-71
2023/06/03 03:39:14;;;;;;;;;;;;;;;16.66;92.96;97953.41;5038983;28;19922;-71
2023/06/03 03:41:44;;;;;;;;;;;;;;;15.96;99.67;97960.13;5042304;28;19926;-71
2023/06/03 03:44:12;;;;;;;;;;;;;;;15.64;100.00;97958.25;5056946;28;21538;-71
2023/06/03 03:46:41;;;;;;;;;;;;;;;15.89;100.00;97965.91;5040997;28;19921;-71
2023/06/03 03:49:07;;;;;;;;;;;;;;;16.20;99.86;97968.84;5038660;28;20258;-71
2023/06/03 03:51:35;;;;;;;;;;;;;;;16.38;97.53;97967.16;5039537;28;19925;-71
2023/06/03 03:54:01;;;;;;;;;;;;;;;16.53;97.16;97961.47;5042125;28;19931;-71
2023/06/03 03:56:27;;;;;;;;;;;;;;;16.74;92.38;97955.41;5035678;28;19933;-71
2023/06/03 03:58:55;;;;;;;;;;;;;;;16.08;98.75;97965.84;5041994;28;19921;-71
2023/06/03 04:01:23;;;;;;;;;;;;;;;16.47;95.97;97954.59;5036289;28;19993;-71
2023/06/03 04:03:50;;;;;;;;;;;;;;;16.44;96.26;97957.88;5042946;28;19933;-71
2023/06/03 04:06:26;;;;;;;;;;;;;;;15.99;99.95;97954.16;5057897;28;20225;-71
2023/06/03 04:08:54;;;;;;;;;;;;;;;15.33;100.00;97962.47;5042163;28;19997;-71
2023/06/03 04:11:24;;;;;;;;;;;;;;;15.48;100.00;97965.75;5038296;28;19929;-71
2023/06/03 04:13:50;;;;;;;;;;;;;;;15.13;100.00;97964.34;5038363;28;19928;-71
2023/06/03 04:16:36;;;;;;;;;;;;;;;16.26;100.00;97964.97;5041476;28;19944;-70
2023/06/03 04:19:02;;;;;;;;;;;;;;;15.34;100.00;97962.19;5042069;28;19926;-70
2023/06/03 04:21:29;;;;;;;;;;;;;;;15.38;100.00;97979.31;5041932;28;19952;-70
2023/06/03 04:23:55;;;;;;;;;;;;;;;15.53;100.00;97979.16;5041879;28;19925;-70
2023/06/03 04:26:22;;;;;;;;;;;;;;;15.74;100.00;97974.22;5038204;28;19925;-71
2023/06/03 04:28:48;;;;;;;;;;;;;;;16.44;99.20;97977.56;5040417;28;19941;-71
2023/06/03 04:31:14;;;;;;;;;;;;;;;15.90;100.00;97980.97;5038100;28;19972;-71
2023/06/03 04:33:42;;;;;;;;;;;;;;;15.94;100.00;97979.25;5041807;28;19937;-71
2023/06/03 04:36:08;;;;;;;;;;;;;;;16.28;99.11;97986.25;5041922;28;19972;-71
2023/06/03 04:38:35;;;;;;;;;;;;;;;16.40;98.74;97983.84;5039997;28;20390;-71
2023/06/03 04:41:02;;;;;;;;;;;;;;;15.68;100.00;97988.88;5038027;28;19925;-70
2023/06/03 04:43:29;;;;;;;;;;;;;;;15.07;100.00;97987.03;5039566;28;19929;-70
2023/06/03 04:45:55;;;;;;;;;;;;;;;15.82;100.00;97992.41;5042298;28;19921;-71
2023/06/03 04:48:22;;;;;;;;;;;;;;;15.41;100.00;97999.50;5057733;28;19946;-71
2023/06/03 04:50:50;;;;;;;;;;;;;;;15.78;100.00;97994.09;5041663;28;19925;-71
2023/06/03 04:53:17;;;;;;;;;;;;;;;15.66;100.00;97999.13;5042219;28;19925;-71
2023/06/03 04:55:44;;;;;;;;;;;;;;;15.99;100.00;98000.75;5042417;28;19925;-71
2023/06/03 04:58:11;;;;;;;;;;;;;;;15.92;100.00;98000.31;5041759;28;19929;-71
2023/06/03 05:00:40;;;;;;;;;;;;;;;15.72;100.00;98006.03;5050456;28;19936;-71
2023/06/03 05:03:08;;;;;;;;;;;;;;;16.27;100.00;97998.91;5035933;28;19930;-71
2023/06/03 05:05:35;;;;;;;;;;;;;;;16.19;100.00;98008.47;5039911;28;19940;-71
2023/06/03 05:08:03;;;;;;;;;;;;;;;16.80;96.44;98004.66;5037552;28;19937;-71
2023/06/03 05:10:30;;;;;;;;;;;;;;;16.24;100.00;98009.47;5045989;28;19945;-71
2023/06/03 05:12:57;;;;;;;;;;;;;;;15.85;100.00;98009.84;5041885;28;19925;-70
2023/06/03 05:15:23;;;;;;;;;;;;;;;15.87;100.00;98000.41;5053781;28;19927;-71
2023/06/03 05:17:49;;;;;;;;;;;;;;;15.75;100.00;98005.47;5037795;28;19945;-71
2023/06/03 05:20:16;;;;;;;;;;;;;;;15.69;100.00;98003.91;5041024;28;19926;-71
2023/06/03 05:22:42;;;;;;;;;;;;;;;16.27;100.00;98003.50;5056543;28;19926;-71
2023/06/03 05:25:12;;;;;;;;;;;;;;;16.03;100.00;98004.44;5041356;28;20045;-71
2023/06/03 05:27:38;;;;;;;;;;;;;;;15.84;100.00;98006.38;5039988;28;19925;-71
2023/06/03 05:30:05;;;;;;;;;;;;;;;15.88;100.00;98006.56;5045933;28;19921;-71
2023/06/03 05:32:31;;;;;;;;;;;;;;;16.07;100.00;98008.13;5036136;28;19925;-71
2023/06/03 05:34:57;;;;;;;;;;;;;;;16.30;100.00;98010.97;5056687;28;19929;-71
2023/06/03 05:37:24;;;;;;;;;;;;;;;17.35;95.51;98004.56;5041357;28;19926;-71
2023/06/03 05:39:50;;;;;;;;;;;;;;;17.51;93.58;98001.22;5041431;28;19925;-71
2023/06/03 05:42:18;;;;;;;;;;;;;;;17.80;90.46;98001.63;5038019;28;20004;-71
2023/06/03 05:44:45;;;;;;;;;;;;;;;17.73;91.41;98003.19;5044993;28;19928;-71
2023/06/03 05:47:11;;;;;;;;;;;;;;;17.69;92.05;98008.38;5039374;28;19932;-71
2023/06/03 05:49:38;;;;;;;;;;;;;;;18.30;87.35;97996.03;5044691;28;19929;-71
2023/06/03 05:52:05;;;;;;;;;;;;;;;18.34;86.92;98007.84;5036300;28;19921;-71
2023/06/03 05:54:31;;;;;;;;;;;;;;;18.45;86.53;98019.97;5040008;28;19925;-71
2023/06/03 05:56:58;;;;;;;;;;;;;;;18.54;84.19;98007.31;5056556;28;19929;-71
2023/06/03 05:59:26;;;;;;;;;;;;;;;18.71;83.51;98002.00;5045852;28;19921;-71
2023/06/03 06:01:52;;;;;;;;;;;;;;;18.77;81.74;98010.75;5044312;28;19936;-71
2023/06/03 06:04:19;;;;;;;;;;;;;;;19.03;80.77;97998.09;5035004;28;19965;-71
2023/06/03 06:06:45;;;;;;;;;;;;;;;19.37;78.69;98000.06;5041399;28;19925;-71
2023/06/03 06:09:11;;;;;;;;;;;;;;;19.57;77.07;97998.66;5044526;28;19925;-71
2023/06/03 06:11:38;;;;;;;;;;;;;;;19.67;76.05;98001.84;5044343;28;19929;-71
2023/06/03 06:14:04;;;;;;;;;;;;;;;19.67;75.63;97992.91;5044326;28;19979;-71
2023/06/03 06:16:32;;;;;;;;;;;;;;;19.75;76.21;97998.31;5042120;28;19925;-71
2023/06/03 06:18:58;;;;;;;;;;;;;;;19.73;76.32;98000.56;5040850;28;19933;-71
2023/06/03 06:21:25;;;;;;;;;;;;;;;19.75;76.06;98002.94;5042708;28;19926;-71
2023/06/03 06:23:51;;;;;;;;;;;;;;;19.88;74.41;98007.41;5044339;28;19925;-71
2023/06/03 06:26:18;;;;;;;;;;;;;;;20.11;73.66;98008.81;5044312;28;19930;-71
2023/06/03 06:28:45;;;;;;;;;;;;;;;20.24;72.97;98004.31;5057804;28;19925;-71
2023/06/03 06:31:12;;;;;;;;;;;;;;;20.14;72.93;97997.31;5037236;28;19932;-72
2023/06/03 06:33:41;;;;;;;;;;;;;;;20.25;71.91;98008.59;5037222;28;19937;-72
2023/06/03 06:36:26;;;;;;;;;;;;;;;20.34;71.93;97998.56;5052278;28;19926;-71
2023/06/03 06:38:53;;;;;;;;;;;;;;;20.20;73.97;97998.75;5044288;28;19925;-71
2023/06/03 06:41:21;;;;;;;;;;;;;;;20.09;74.21;97999.38;5039937;28;20664;-71
2023/06/03 06:43:47;;;;;;;;;;;;;;;20.30;73.65;97997.63;5040374;28;19925;-71
2023/06/03 06:46:14;;;;;;;;;;;;;;;20.30;73.97;98000.34;5043961;28;19933;-71
2023/06/03 06:48:41;;;;;;;;;;;;;;;20.06;73.90;97992.69;5043924;28;19929;-71
2023/06/03 06:51:08;;;;;;;;;;;;;;;20.44;73.77;98007.16;5043858;28;19997;-71
2023/06/03 06:53:35;;;;;;;;;;;;;;;20.34;73.09;97999.38;5041777;28;19929;-71
2023/06/03 06:56:04;;;;;;;;;;;;;;;20.49;72.57;97998.03;5040018;28;19925;-71
2023/06/03 06:58:33;;;;;;;;;;;;;;;20.63;72.74;98001.34;5041351;28;19925;-71
2023/06/03 07:01:00;;;;;;;;;;;;;;;20.57;72.76;98001.84;5058996;28;19926;-71
2023/06/03 07:03:27;;;;;;;;;;;;;;;20.26;74.16;97997.47;5043443;28;19945;-71
2023/06/03 07:05:55;;;;;;;;;;;;;;;20.56;73.24;98001.03;5039455;28;19926;-71
2023/06/03 07:08:22;;;;;;;;;;;;;;;20.66;72.53;98008.03;5040968;28;19936;-71
2023/06/03 07:10:48;;;;;;;;;;;;;;;20.60;71.83;97999.28;5039307;28;19937;-71
2023/06/03 07:13:15;;;;;;;;;;;;;;;20.70;72.40;98000.84;5038282;28;19929;-71
2023/06/03 07:15:42;;;;;;;;;;;;;;;20.22;72.56;98010.06;5042559;28;19991;-71
2023/06/03 07:18:09;;;;;;;;;;;;;;;20.37;71.16;98009.56;5043165;28;19944;-71
2023/06/03 07:20:36;;;;;;;;;;;;;;;20.45;70.54;98008.75;5042340;28;20319;-72
2023/06/03 07:23:08;;;;;;;;;;;;;;;20.02;71.40;98010.75;5038510;28;19925;-71
2023/06/03 07:25:35;;;;;;;;;;;;;;;19.95;73.25;98010.44;5047251;28;19929;-71
2023/06/03 07:28:03;;;;;;;;;;;;;;;19.99;73.29;98002.47;5043613;28;19924;-71
2023/06/03 07:30:29;;;;;;;;;;;;;;;20.20;72.48;98008.78;5050805;28;20570;-71
2023/06/03 07:32:58;;;;;;;;;;;;;;;20.16;72.01;98008.63;5038759;28;19936;-71
2023/06/03 07:35:25;;;;;;;;;;;;;;;20.11;73.12;98011.53;5043475;28;19929;-71
2023/06/03 07:37:51;;;;;;;;;;;;;;;20.28;72.12;98008.78;5044029;28;19922;-71
2023/06/03 07:40:19;;;;;;;;;;;;;;;20.21;71.89;98011.16;5044117;28;19926;-71
2023/06/03 07:42:46;;;;;;;;;;;;;;;20.22;71.77;98012.78;5039528;28;20343;-71
2023/06/03 07:45:13;;;;;;;;;;;;;;;20.14;72.29;98015.50;5038004;28;19948;-71
2023/06/03 07:47:40;;;;;;;;;;;;;;;20.12;72.46;98021.25;5041289;28;19922;-71
2023/06/03 07:50:20;;;;;;;;;;;;;;;19.99;73.20;98018.72;5043942;28;19925;-71
2023/06/03 07:52:46;;;;;;;;;;;;;;;19.85;74.52;98019.69;5043397;28;19937;-71
2023/06/03 07:55:12;;;;;;;;;;;;;;;19.90;75.65;98021.41;5042654;28;19936;-71
2023/06/03 07:57:44;;;;;;;;;;;;;;;19.72;76.13;98009.00;5041389;28;19925;-71
2023/06/03 08:00:11;;;;;;;;;;;;;;;19.91;76.15;98007.56;5046139;28;19929;-71
2023/06/03 08:02:37;;;;;;;;;;;;;;;19.89;76.26;98011.72;5043366;28;19929;-71
2023/06/03 08:05:05;;;;;;;;;;;;;;;20.03;75.03;98017.75;5042814;28;19925;-71
2023/06/03 08:07:32;;;;;;;;;;;;;;;20.31;73.67;98021.72;5039917;28;19925;-71
2023/06/03 08:09:59;;;;;;;;;;;;;;;20.31;72.03;98012.78;5052994;28;19925;-71
2023/06/03 08:12:29;;;;;;;;;;;;;;;20.21;73.47;98010.41;5041919;28;20020;-71
2023/06/03 08:14:57;;;;;;;;;;;;;;;20.10;73.23;98020.78;5057819;28;19926;-71
2023/06/03 08:17:34;;;;;;;;;;;;;;;20.22;71.79;98018.19;5042245;28;19921;-71
2023/06/03 08:20:07;;;;;;;;;;;;;;;20.24;71.87;98021.38;5039113;28;19925;-71
2023/06/03 08:22:40;;;;;;;;;;;;;;;20.50;72.22;98015.09;5040227;28;19929;-71
2023/06/03 08:25:07;;;;;;;;;;;;;;;20.63;71.07;98016.81;5038479;28;20267;-71
2023/06/03 08:27:33;;;;;;;;;;;;;;;20.66;70.70;98016.16;5039020;28;19925;-72
2023/06/03 08:30:03;;;;;;;;;;;;;;;20.90;70.04;98013.66;5050574;28;19968;-72
2023/06/03 08:32:29;;;;;;;;;;;;;;;21.11;69.59;98011.81;5041925;28;19929;-72
2023/06/03 08:34:56;;;;;;;;;;;;;;;20.98;68.57;98007.41;5041969;28;19928;-72
2023/06/03 08:37:22;;;;;;;;;;;;;;;21.09;68.77;98000.50;5039256;28;19925;-72
2023/06/03 08:39:48;;;;;;;;;;;;;;;20.99;68.01;98000.84;5037184;28;19925;-72
2023/06/03 08:42:18;;;;;;;;;;;;;;;20.79;69.74;97998.88;5036642;28;19953;-71
2023/06/03 08:44:49;;;;;;;;;;;;;;;20.50;70.97;98007.78;5057471;28;19922;-71
2023/06/03 08:47:20;;;;;;;;;;;;;;;20.25;72.62;98009.41;5036027;28;19936;-71
2023/06/03 08:49:51;;;;;;;;;;;;;;;20.56;73.19;98011.91;5042018;28;19925;-72
2023/06/03 08:52:19;;;;;;;;;;;;;;;20.73;72.15;98002.91;5043206;28;19929;-72
2023/06/03 08:54:46;;;;;;;;;;;;;;;20.96;69.94;98002.28;5041754;28;19925;-71
2023/06/03 08:57:19;;;;;;;;;;;;;;;20.96;69.52;98013.16;5041945;28;19926;-71
2023/06/03 08:59:47;;;;;;;;;;;;;;;21.12;69.21;98002.53;5043425;28;19921;-71
2023/06/03 09:02:14;;;;;;;;;;;;;;;20.90;69.44;98009.03;5036963;28;19933;-72
2023/06/03 09:04:42;;;;;;;;;;;;;;;20.92;69.94;98000.56;5039404;28;20390;-72
2023/06/03 09:07:10;;;;;;;;;;;;;;;20.93;70.89;98008.38;5041821;28;19960;-72
2023/06/03 09:09:38;;;;;;;;;;;;;;;20.81;71.88;98002.84;5040662;28;19925;-71
2023/06/03 09:12:06;;;;;;;;;;;;;;;20.68;72.61;98000.34;5039099;28;19990;-71
2023/06/03 09:14:33;;;;;;;;;;;;;;;20.79;72.83;97998.88;5054864;28;19929;-71
2023/06/03 09:17:00;;;;;;;;;;;;;;;20.97;71.56;97998.47;5037867;28;19933;-71
2023/06/03 09:19:27;;;;;;;;;;;;;;;21.17;72.94;97993.44;5038532;28;19925;-70
2023/06/03 09:21:56;;;;;;;;;;;;;;;21.17;71.23;98002.34;5056881;28;19925;-71
2023/06/03 09:24:22;;;;;;;;;;;;;;;21.04;71.69;97997.94;5041432;28;19952;-71
2023/06/03 09:26:48;;;;;;;;;;;;;;;21.05;71.78;97998.72;5041144;28;19987;-71
2023/06/03 09:29:17;;;;;;;;;;;;;;;20.96;70.69;98005.00;5040176;28;19925;-71
2023/06/03 09:31:43;;;;;;;;;;;;;;;20.85;71.75;98003.00;5037387;28;19991;-70
2023/06/03 09:34:10;;;;;;;;;;;;;;;20.76;72.43;97996.81;5041409;28;19945;-70
2023/06/03 09:36:44;;;;;;;;;;;;;;;21.35;71.80;98000.34;5041161;28;19925;-70
2023/06/03 09:39:16;;;;;;;;;;;;;;;21.60;70.48;97991.16;5042323;28;19941;-71
2023/06/03 09:41:43;;;;;;;;;;;;;;;21.79;68.91;97999.63;5044506;28;19936;-71
2023/06/03 09:44:10;;;;;;;;;;;;;;;21.83;68.07;97997.06;5045904;28;19934;-71
2023/06/03 09:46:37;;;;;;;;;;;;;;;21.90;67.59;97991.91;5045219;28;19936;-71
2023/06/03 09:49:10;;;;;;;;;;;;;;;22.01;67.03;97995.78;5044755;28;19928;-71
2023/06/03 09:51:41;;;;;;;;;;;;;;;22.05;67.29;97991.28;5058040;28;19925;-70
2023/06/03 09:54:13;;;;;;;;;;;;;;;22.00;67.36;97988.78;5039748;28;20254;-70
2023/06/03 09:56:40;;;;;;;;;;;;;;;22.02;66.67;97986.50;5042476;28;19929;-70
2023/06/03 09:59:13;;;;;;;;;;;;;;;22.19;65.98;97991.75;5049415;28;19926;-70
2023/06/03 10:01:39;;;;;;;;;;;;;;;22.24;65.60;97997.00;5047565;28;19930;-71
2023/06/03 10:04:06;;;;;;;;;;;;;;;21.91;66.17;98004.38;5044405;28;19921;-71
2023/06/03 10:06:35;;;;;;;;;;;;;;;22.15;66.51;97992.78;5039528;28;20425;-71
2023/06/03 10:09:17;;;;;;;;;;;;;;;22.32;64.94;98000.75;5040730;28;19922;-71
2023/06/03 10:11:48;;;;;;;;;;;;;;;22.23;63.74;97987.25;5048400;28;19921;-71
2023/06/03 10:14:15;;;;;;;;;;;;;;;22.16;63.38;97991.66;5044114;28;19929;-70
2023/06/03 10:16:42;;;;;;;;;;;;;;;22.41;64.05;97999.50;5044053;28;19949;-70
2023/06/03 10:19:08;;;;;;;;;;;;;;;22.47;62.14;98000.09;5044238;28;19936;-71
2023/06/03 10:21:37;;;;;;;;;;;;;;;22.38;62.57;97992.03;5042502;28;19925;-71
2023/06/03 10:24:05;;;;;;;;;;;;;;;22.42;62.56;97986.72;5040497;28;19926;-71
2023/06/03 10:26:33;;;;;;;;;;;;;;;22.62;61.48;97982.31;5041701;28;19925;-71
2023/06/03 10:29:02;;;;;;;;;;;;;;;22.73;60.67;97983.47;5047594;28;19936;-71
2023/06/03 10:31:29;;;;;;;;;;;;;;;22.39;63.20;97980.03;5044193;28;19921;-71
2023/06/03 10:33:56;;;;;;;;;;;;;;;22.75;61.98;97981.19;5044644;28;19925;-71
2023/06/03 10:36:24;;;;;;;;;;;;;;;22.94;61.71;97970.53;5043768;28;19926;-71
2023/06/03 10:38:51;;;;;;;;;;;;;;;23.31;60.85;97977.50;5043049;28;20441;-71
2023/06/03 10:41:19;;;;;;;;;;;;;;;23.11;59.77;97968.38;5059408;28;19932;-71
2023/06/03 10:43:45;;;;;;;;;;;;;;;22.82;59.67;97965.09;5043222;28;19925;-71
2023/06/03 10:46:14;;;;;;;;;;;;;;;22.51;60.18;97971.88;5039103;28;19922;-71
2023/06/03 10:48:42;;;;;;;;;;;;;;;22.40;60.58;97969.94;5041907;28;19929;-71
2023/06/03 10:51:16;;;;;;;;;;;;;;;22.68;60.17;97975.53;5043351;28;19932;-70
2023/06/03 10:53:50;;;;;;;;;;;;;;;22.66;58.96;97970.44;5044110;28;19925;-70
2023/06/03 10:56:21;;;;;;;;;;;;;;;22.39;58.70;97963.69;5044344;28;19925;-71
2023/06/03 10:58:48;;;;;;;;;;;;;;;22.30;59.61;97964.91;5043450;28;19939;-70
2023/06/03 11:01:16;;;;;;;;;;;;;;;22.59;59.61;97960.06;5048120;28;19928;-70
2023/06/03 11:03:59;;;;;;;;;;;;;;;22.80;58.94;97968.19;5041232;28;19933;-70
2023/06/03 11:06:41;;;;;;;;;;;;;;;22.97;58.57;97956.22;5040250;28;19926;-70
2023/06/03 11:09:08;;;;;;;;;;;;;;;22.99;58.87;97959.41;5044336;28;19933;-71
2023/06/03 11:11:52;;;;;;;;;;;;;;;23.10;58.00;97974.16;5043668;28;20021;-70
2023/06/03 11:14:38;;;;;;;;;;;;;;;23.04;57.49;97967.34;5052584;28;19925;-71
2023/06/03 11:17:12;;;;;;;;;;;;;;;23.23;57.47;97962.09;5041871;28;20545;-71
2023/06/03 11:19:40;;;;;;;;;;;;;;;23.44;56.82;97959.22;5042281;28;19932;-71
2023/06/03 11:22:07;;;;;;;;;;;;;;;23.65;55.94;97957.09;5039338;28;19914;-71
2023/06/03 11:24:58;;;;;;;;;;;;;;;23.49;56.17;97970.69;5040513;28;19921;-71
2023/06/03 11:27:25;;;;;;;;;;;;;;;23.14;56.57;97966.88;5043433;28;19929;-71
2023/06/03 11:29:56;;;;;;;;;;;;;;;22.97;56.85;97964.41;5041179;28;19932;-71
2023/06/03 11:32:25;;;;;;;;;;;;;;;23.02;56.04;97954.09;5039352;28;19925;-71
2023/06/03 11:34:52;;;;;;;;;;;;;;;23.11;56.49;97959.41;5039369;28;19925;-71
2023/06/03 11:37:19;;;;;;;;;;;;;;;23.33;55.59;97956.19;5042646;28;19925;-71
2023/06/03 11:39:59;;;;;;;;;;;;;;;23.46;55.01;97955.00;5057939;28;19925;-71
2023/06/03 11:42:26;;;;;;;;;;;;;;;23.54;54.42;97943.19;5042644;28;19925;-71
2023/06/03 11:44:52;;;;;;;;;;;;;;;23.45;54.98;97948.00;5042250;28;19979;-71
2023/06/03 11:47:18;;;;;;;;;;;;;;;23.35;54.36;97940.28;5035038;28;19922;-71
2023/06/03 11:49:46;;;;;;;;;;;;;;;23.15;54.50;97951.34;5039357;28;19932;-71
2023/06/03 11:52:14;;;;;;;;;;;;;;;23.11;54.91;97940.34;5042596;28;20015;-71
2023/06/03 11:54:45;;;;;;;;;;;;;;;23.17;54.60;97944.41;5042458;28;19929;-71
2023/06/03 11:57:13;;;;;;;;;;;;;;;23.03;54.59;97941.25;5037365;28;19930;-71
2023/06/03 11:59:41;;;;;;;;;;;;;;;23.13;54.21;97933.41;5043183;28;19936;-71
2023/06/03 12:02:08;;;;;;;;;;;;;;;23.25;54.47;97929.84;5038463;28;19926;-71
2023/06/03 12:04:35;;;;;;;;;;;;;;;23.26;53.91;97931.44;5039427;28;19925;-71
2023/06/03 12:07:09;;;;;;;;;;;;;;;23.10;54.41;97938.75;5041852;28;19929;-71
2023/06/03 12:09:36;;;;;;;;;;;;;;;23.10;54.47;97925.13;5057912;28;19936;-71
2023/06/03 12:12:05;;;;;;;;;;;;;;;23.22;53.51;97935.19;5042056;28;19929;-71
2023/06/03 12:14:33;;;;;;;;;;;;;;;23.05;54.53;97919.91;5040505;28;19932;-71
2023/06/03 12:17:08;;;;;;;;;;;;;;;23.09;53.88;97923.53;5036994;28;19927;-71
2023/06/03 12:19:36;;;;;;;;;;;;;;;23.18;53.44;97909.78;5046163;28;19956;-71
2023/06/03 12:22:04;;;;;;;;;;;;;;;23.27;53.66;97916.69;5042327;28;19926;-71
2023/06/03 12:24:31;;;;;;;;;;;;;;;23.30;53.81;97924.16;5039127;28;19929;-71
2023/06/03 12:27:10;;;;;;;;;;;;;;;23.23;53.13;97909.53;5037429;28;19925;-71
2023/06/03 12:29:40;;;;;;;;;;;;;;;23.39;53.58;97908.50;5047421;28;19925;-70
2023/06/03 12:32:07;;;;;;;;;;;;;;;23.54;53.15;97905.03;5041663;28;19953;-70
2023/06/03 12:34:34;;;;;;;;;;;;;;;23.65;52.41;97906.09;5041798;28;19936;-70
2023/06/03 12:37:01;;;;;;;;;;;;;;;23.66;52.15;97906.91;5041747;28;19987;-71
2023/06/03 12:39:41;;;;;;;;;;;;;;;23.61;52.08;97907.94;5054124;28;19925;-71
2023/06/03 12:42:09;;;;;;;;;;;;;;;23.36;52.07;97906.44;5036819;28;19932;-71
2023/06/03 12:44:41;;;;;;;;;;;;;;;23.22;52.86;97916.91;5038925;28;19932;-71
2023/06/03 12:47:07;;;;;;;;;;;;;;;23.28;52.31;97904.63;5041803;28;19925;-71
2023/06/03 12:49:34;;;;;;;;;;;;;;;23.28;51.77;97895.66;5056877;28;19948;-71